createdAt,value
2019-03-26T00:01:28.495Z,11.93
2019-03-26T00:04:05.220Z,11.73
2019-03-26T00:06:22.021Z,11.68
2019-03-26T00:08:47.815Z,14.70
2019-03-26T00:11:13.617Z,17.80
2019-03-26T00:13:39.443Z,14.47
2019-03-26T00:16:05.486Z,12.60
2019-03-26T00:18:31.573Z,11.70
2019-03-26T00:20:57.635Z,13.13
2019-03-26T00:23:23.725Z,13.93
2019-03-26T00:25:52.849Z,13.88
2019-03-26T00:28:18.682Z,18.95
2019-03-26T00:30:44.584Z,13.10
2019-03-26T00:33:10.409Z,15.30
2019-03-26T00:35:36.231Z,14.57
2019-03-26T00:38:02.471Z,15.97
2019-03-26T00:40:28.566Z,15.83
2019-03-26T00:42:57.512Z,18.42
2019-03-26T00:47:48.893Z,13.68
2019-03-26T00:50:14.683Z,12.30
2019-03-26T00:52:40.505Z,18.00
2019-03-26T00:55:07.058Z,11.67
2019-03-26T00:57:32.964Z,15.40
2019-03-26T01:00:03.915Z,11.90
2019-03-26T01:02:29.784Z,16.40
2019-03-26T01:04:55.675Z,17.83
2019-03-26T01:07:21.557Z,11.53
2019-03-26T01:09:47.371Z,18.17
2019-03-26T01:12:13.363Z,18.33
2019-03-26T01:14:39.448Z,17.35
2019-03-26T01:17:05.508Z,11.43
2019-03-26T01:19:31.349Z,14.80
2019-03-26T01:21:57.180Z,12.33
2019-03-26T01:24:22.999Z,12.53
2019-03-26T01:26:48.833Z,18.93
2019-03-26T01:29:14.641Z,18.53
2019-03-26T01:31:40.463Z,15.70
2019-03-26T01:34:06.251Z,14.47
2019-03-26T01:36:32.102Z,16.63
2019-03-26T01:38:58.197Z,14.17
2019-03-26T01:41:23.982Z,16.37
2019-03-26T01:43:50.275Z,15.73
2019-03-26T01:46:16.049Z,18.90
2019-03-26T01:48:41.874Z,17.17
2019-03-26T01:51:07.996Z,23.67
2019-03-26T01:53:34.075Z,18.20
2019-03-26T01:56:00.184Z,17.90
2019-03-26T01:58:26.030Z,16.95
2019-03-26T02:00:51.853Z,17.53
2019-03-26T02:03:17.901Z,19.70
2019-03-26T02:05:43.731Z,17.40
2019-03-26T02:08:09.532Z,17.40
2019-03-26T02:10:35.780Z,16.63
2019-03-26T02:13:01.589Z,14.95
2019-03-26T02:15:29.042Z,18.87
2019-03-26T02:17:54.839Z,23.57
2019-03-26T02:20:21.085Z,16.20
2019-03-26T02:22:46.986Z,14.53
2019-03-26T02:25:12.834Z,18.83
2019-03-26T02:27:38.899Z,22.47
2019-03-26T02:30:05.577Z,18.40
2019-03-26T02:32:34.659Z,17.20
2019-03-26T02:35:17.134Z,17.15
2019-03-26T02:37:28.672Z,24.10
2019-03-26T02:39:54.789Z,20.40
2019-03-26T02:42:22.412Z,24.60
2019-03-26T02:44:48.455Z,16.12
2019-03-26T02:47:17.300Z,19.73
2019-03-26T02:49:43.231Z,18.30
2019-03-26T02:52:09.041Z,20.47
2019-03-26T02:54:35.067Z,20.97
2019-03-26T02:57:01.153Z,22.80
2019-03-26T02:59:29.982Z,25.25
2019-03-26T03:01:55.879Z,18.07
2019-03-26T03:04:24.455Z,21.47
2019-03-26T03:06:50.298Z,18.32
2019-03-26T03:09:19.553Z,20.50
2019-03-26T03:11:45.383Z,24.18
2019-03-26T03:14:14.599Z,23.60
2019-03-26T03:16:40.413Z,26.93
2019-03-26T03:19:07.615Z,23.77
2019-03-26T03:21:33.406Z,19.62
2019-03-26T03:24:02.231Z,24.50
2019-03-26T03:26:28.081Z,34.27
2019-03-26T03:28:54.102Z,23.50
2019-03-26T03:31:20.008Z,21.80
2019-03-26T03:33:45.846Z,21.70
2019-03-26T03:36:14.746Z,33.87
2019-03-26T03:38:41.503Z,31.20
2019-03-26T03:41:09.244Z,20.52
2019-03-26T03:43:35.161Z,24.32
2019-03-26T03:46:04.494Z,27.50
2019-03-26T03:48:31.566Z,22.58
2019-03-26T03:50:57.917Z,25.88
2019-03-26T03:53:24.918Z,22.93
2019-03-26T03:55:55.012Z,28.20
2019-03-26T03:58:22.624Z,19.85
2019-03-26T04:00:48.729Z,27.65
2019-03-26T04:03:14.798Z,27.07
2019-03-26T04:05:40.581Z,22.65
2019-03-26T04:08:06.534Z,36.53
2019-03-26T04:10:32.683Z,26.70
2019-03-26T04:12:58.890Z,31.75
2019-03-26T04:15:24.701Z,23.77
2019-03-26T04:17:53.597Z,27.40
2019-03-26T04:20:19.383Z,34.23
2019-03-26T04:22:48.293Z,31.53
2019-03-26T04:25:14.142Z,29.23
2019-03-26T04:27:42.987Z,39.97
2019-03-26T04:30:09.204Z,36.50
2019-03-26T04:32:37.652Z,27.37
2019-03-26T04:35:04.917Z,28.52
2019-03-26T04:37:33.712Z,28.47
2019-03-26T04:39:59.522Z,30.17
2019-03-26T04:42:25.369Z,27.27
2019-03-26T04:44:51.166Z,29.07
2019-03-26T04:47:17.291Z,32.20
2019-03-26T04:49:45.921Z,29.87
2019-03-26T04:52:11.712Z,29.80
2019-03-26T04:54:40.577Z,38.20
2019-03-26T04:57:06.405Z,30.95
2019-03-26T04:59:33.323Z,29.47
2019-03-26T05:01:59.395Z,28.45
2019-03-26T05:04:28.253Z,27.58
2019-03-26T05:06:54.054Z,31.15
2019-03-26T05:09:22.912Z,34.10
2019-03-26T05:11:48.691Z,26.45
2019-03-26T05:14:17.664Z,32.20
2019-03-26T05:16:43.465Z,30.62
2019-03-26T05:19:09.274Z,28.73
2019-03-26T05:21:35.112Z,23.73
2019-03-26T05:24:00.997Z,26.30
2019-03-26T05:26:30.698Z,28.63
2019-03-26T05:28:56.758Z,24.87
2019-03-26T05:31:25.627Z,31.33
2019-03-26T05:33:51.442Z,23.38
2019-03-26T05:36:20.271Z,29.20
2019-03-26T05:38:46.097Z,23.85
2019-03-26T05:41:14.901Z,33.47
2019-03-26T05:43:40.699Z,23.95
2019-03-26T05:46:09.299Z,20.83
2019-03-26T05:48:35.393Z,23.83
2019-03-26T05:51:04.258Z,29.57
2019-03-26T05:53:30.082Z,27.80
2019-03-26T05:55:55.903Z,26.53
2019-03-26T05:58:21.740Z,24.30
2019-03-26T06:00:47.580Z,33.27
2019-03-26T06:03:16.220Z,27.30
2019-03-26T06:05:42.054Z,39.48
2019-03-26T06:08:11.034Z,26.17
2019-03-26T06:10:36.833Z,25.77
2019-03-26T06:13:05.696Z,38.83
2019-03-26T06:15:31.507Z,46.63
2019-03-26T06:18:00.371Z,25.20
2019-03-26T06:20:26.172Z,28.27
2019-03-26T06:22:55.619Z,30.10
2019-03-26T06:25:21.426Z,26.17
2019-03-26T06:27:50.272Z,29.87
2019-03-26T06:30:16.097Z,31.68
2019-03-26T06:32:41.923Z,26.53
2019-03-26T06:35:08.325Z,28.87
2019-03-26T06:37:34.453Z,21.15
2019-03-26T06:40:00.397Z,26.73
2019-03-26T06:42:26.234Z,31.57
2019-03-26T06:44:55.248Z,27.67
2019-03-26T06:47:21.345Z,23.65
2019-03-26T06:49:50.767Z,19.45
2019-03-26T06:52:16.630Z,31.02
2019-03-26T06:54:45.205Z,28.90
2019-03-26T06:57:11.413Z,25.82
2019-03-26T06:59:38.866Z,25.00
2019-03-26T07:02:05.050Z,24.52
2019-03-26T07:04:33.879Z,25.65
2019-03-26T07:06:59.666Z,30.37
2019-03-26T07:09:25.488Z,19.80
2019-03-26T07:11:51.277Z,18.20
2019-03-26T07:14:17.380Z,37.07
2019-03-26T07:16:45.975Z,16.82
2019-03-26T07:19:11.776Z,18.67
2019-03-26T07:21:49.603Z,19.60
2019-03-26T07:24:09.539Z,26.10
2019-03-26T07:26:35.349Z,18.50
2019-03-26T07:29:01.154Z,24.47
2019-03-26T07:31:29.765Z,17.17
2019-03-26T07:33:55.846Z,19.98
2019-03-26T07:36:24.532Z,17.02
2019-03-26T07:38:50.337Z,17.07
2019-03-26T07:41:20.447Z,17.63
2019-03-26T07:43:46.279Z,14.85
2019-03-26T07:46:12.379Z,21.93
2019-03-26T07:48:38.180Z,12.35
2019-03-26T07:51:04.015Z,15.40
2019-03-26T07:53:32.837Z,16.33
2019-03-26T07:55:59.012Z,16.07
2019-03-26T07:58:26.526Z,15.80
2019-03-26T08:00:52.492Z,15.70
2019-03-26T08:03:21.313Z,15.00
2019-03-26T08:05:50.596Z,22.25
2019-03-26T08:08:16.419Z,16.15
2019-03-26T08:10:42.235Z,11.43
2019-03-26T08:13:10.961Z,16.30
2019-03-26T08:15:36.897Z,16.73
2019-03-26T08:18:05.716Z,11.77
2019-03-26T08:20:31.806Z,21.15
2019-03-26T08:22:57.709Z,10.60
2019-03-26T08:25:23.508Z,13.27
2019-03-26T08:27:49.326Z,24.57
2019-03-26T08:30:17.907Z,13.63
2019-03-26T08:32:44.025Z,12.00
2019-03-26T08:35:12.848Z,25.00
2019-03-26T08:37:38.674Z,11.38
2019-03-26T08:40:07.862Z,15.07
2019-03-26T08:42:33.967Z,13.40
2019-03-26T08:45:01.443Z,21.23
2019-03-26T08:47:27.497Z,15.68
2019-03-26T08:49:56.373Z,15.40
2019-03-26T08:52:22.193Z,11.10
2019-03-26T08:54:51.016Z,11.90
2019-03-26T08:57:17.103Z,9.93
2019-03-26T08:59:42.939Z,10.88
2019-03-26T09:02:08.794Z,15.33
2019-03-26T09:04:34.851Z,14.07
2019-03-26T09:07:02.392Z,8.53
2019-03-26T09:09:28.586Z,10.30
2019-03-26T09:11:57.183Z,12.07
2019-03-26T09:14:23.269Z,11.88
2019-03-26T09:16:52.119Z,21.23
2019-03-26T09:19:18.040Z,10.50
2019-03-26T09:21:46.706Z,11.10
2019-03-26T09:24:12.523Z,11.70
2019-03-26T09:26:41.431Z,9.13
2019-03-26T09:29:07.229Z,12.35
2019-03-26T09:31:36.084Z,8.43
2019-03-26T09:34:02.328Z,13.15
2019-03-26T09:36:28.149Z,9.00
2019-03-26T09:38:54.006Z,12.87
2019-03-26T09:41:19.873Z,9.07
2019-03-26T09:43:48.633Z,10.63
2019-03-26T09:46:14.468Z,12.53
2019-03-26T09:48:43.364Z,9.23
2019-03-26T09:51:10.840Z,11.15
2019-03-26T09:53:36.995Z,11.05
2019-03-26T09:56:03.551Z,8.23
2019-03-26T09:58:32.097Z,5.47
2019-03-26T10:00:57.945Z,13.15
2019-03-26T10:03:26.785Z,7.10
2019-03-26T10:05:52.596Z,8.90
2019-03-26T10:08:20.058Z,16.00
2019-03-26T10:10:46.163Z,13.78
2019-03-26T10:13:11.950Z,12.98
2019-03-26T10:15:37.853Z,7.30
2019-03-26T10:18:03.954Z,14.53
2019-03-26T10:20:31.859Z,12.05
2019-03-26T10:22:57.787Z,11.65
2019-03-26T10:25:29.451Z,8.90
2019-03-26T10:27:55.302Z,10.63
2019-03-26T10:30:34.279Z,8.27
2019-03-26T10:33:00.594Z,7.55
2019-03-26T10:35:26.409Z,6.90
2019-03-26T10:37:52.220Z,11.03
2019-03-26T10:40:33.876Z,6.17
2019-03-26T10:42:59.797Z,7.72
2019-03-26T10:45:25.875Z,6.43
2019-03-26T10:47:53.538Z,8.13
2019-03-26T10:50:19.351Z,15.78
2019-03-26T10:52:45.198Z,13.53
2019-03-26T10:55:11.190Z,18.60
2019-03-26T10:57:37.035Z,12.63
2019-03-26T11:00:06.220Z,10.73
2019-03-26T11:02:32.126Z,7.83
2019-03-26T11:04:57.937Z,4.97
2019-03-26T11:07:24.011Z,8.73
2019-03-26T11:09:49.819Z,21.07
2019-03-26T11:12:15.627Z,8.07
2019-03-26T11:14:41.415Z,6.30
2019-03-26T11:17:07.692Z,10.10
2019-03-26T11:19:33.515Z,9.15
2019-03-26T11:21:59.425Z,11.43
2019-03-26T11:24:25.556Z,7.53
2019-03-26T11:26:51.467Z,6.87
2019-03-26T11:29:17.595Z,7.60
2019-03-26T11:31:43.661Z,4.70
2019-03-26T11:34:09.461Z,6.75
2019-03-26T11:36:35.521Z,11.60
2019-03-26T11:39:01.331Z,11.12
2019-03-26T11:41:27.412Z,7.07
2019-03-26T11:43:53.477Z,14.65
2019-03-26T11:46:19.303Z,11.33
2019-03-26T11:48:48.341Z,5.50
2019-03-26T11:51:14.302Z,4.70
2019-03-26T11:53:42.934Z,4.83
2019-03-26T11:56:08.752Z,6.30
2019-03-26T11:58:37.486Z,5.97
2019-03-26T12:01:04.401Z,9.38
2019-03-26T12:03:30.502Z,6.60
2019-03-26T12:05:56.348Z,11.53
2019-03-26T12:08:22.196Z,6.13
2019-03-26T12:10:48.011Z,13.03
2019-03-26T12:13:14.068Z,9.17
2019-03-26T12:15:42.899Z,9.33
2019-03-26T12:18:08.739Z,7.58
2019-03-26T12:20:39.227Z,9.20
2019-03-26T12:23:05.012Z,11.97
2019-03-26T12:25:33.997Z,8.73
2019-03-26T12:27:59.829Z,6.97
2019-03-26T12:30:33.311Z,5.93
2019-03-26T12:32:59.233Z,7.80
2019-03-26T12:35:28.722Z,6.07
2019-03-26T12:37:54.811Z,5.90
2019-03-26T12:40:20.629Z,8.18
2019-03-26T12:42:46.733Z,10.63
2019-03-26T12:45:12.639Z,10.53
2019-03-26T12:47:38.493Z,10.50
2019-03-26T12:50:05.805Z,7.80
2019-03-26T12:52:31.900Z,8.93
2019-03-26T12:54:57.738Z,10.75
2019-03-26T12:57:23.572Z,3.77
2019-03-26T12:59:49.402Z,7.10
2019-03-26T13:02:18.708Z,5.83
2019-03-26T13:04:44.583Z,5.12
2019-03-26T13:07:13.425Z,5.17
2019-03-26T13:09:41.786Z,8.10
2019-03-26T13:12:07.075Z,8.23
2019-03-26T13:14:32.899Z,5.37
2019-03-26T13:16:58.746Z,7.83
2019-03-26T13:19:24.852Z,7.00
2019-03-26T13:21:50.967Z,7.28
2019-03-26T13:24:19.562Z,5.40
2019-03-26T13:26:48.765Z,4.47
2019-03-26T13:29:13.678Z,18.55
2019-03-26T13:31:39.763Z,5.70
2019-03-26T13:34:07.792Z,8.90
2019-03-26T13:36:33.681Z,15.78
2019-03-26T13:39:06.783Z,9.70
2019-03-26T13:41:32.589Z,9.90
2019-03-26T13:43:58.424Z,9.53
2019-03-26T13:46:24.256Z,11.77
2019-03-26T13:48:53.518Z,9.37
2019-03-26T13:51:19.784Z,11.65
2019-03-26T13:53:45.624Z,9.75
2019-03-26T13:56:11.469Z,9.83
2019-03-26T13:58:37.312Z,12.23
2019-03-26T14:01:04.859Z,4.50
2019-03-26T14:03:30.701Z,10.18
2019-03-26T14:06:00.141Z,14.83
2019-03-26T14:08:26.309Z,13.83
2019-03-26T14:10:55.275Z,14.23
2019-03-26T14:13:21.086Z,9.83
2019-03-26T14:15:49.662Z,7.83
2019-03-26T14:18:15.552Z,7.12
2019-03-26T14:20:44.381Z,10.17
2019-03-26T14:23:10.191Z,6.90
2019-03-26T14:25:38.774Z,17.33
2019-03-26T14:28:04.828Z,11.33
2019-03-26T14:30:42.132Z,8.78
2019-03-26T14:33:08.156Z,15.32
2019-03-26T14:35:34.266Z,10.95
2019-03-26T14:38:00.076Z,7.50
2019-03-26T14:40:25.928Z,9.57
2019-03-26T14:42:51.981Z,30.30
2019-03-26T14:45:17.950Z,14.15
2019-03-26T14:47:43.731Z,24.57
2019-03-26T14:50:09.652Z,12.00
2019-03-26T14:52:35.460Z,7.70
2019-03-26T14:55:01.266Z,8.93
2019-03-26T14:57:30.077Z,9.50
2019-03-26T14:59:55.932Z,8.88
2019-03-26T15:02:23.255Z,14.50
2019-03-26T15:04:49.376Z,9.93
2019-03-26T15:07:15.185Z,11.75
2019-03-26T15:09:41.021Z,13.90
2019-03-26T15:12:06.906Z,10.63
2019-03-26T15:14:35.753Z,11.53
2019-03-26T15:17:01.587Z,7.70
2019-03-26T15:19:30.168Z,13.03
2019-03-26T15:21:56.024Z,9.03
2019-03-26T15:24:24.594Z,8.90
2019-03-26T15:26:50.444Z,7.97
2019-03-26T15:29:19.142Z,10.17
2019-03-26T15:31:44.982Z,16.17
2019-03-26T15:34:13.849Z,12.93
2019-03-26T15:36:39.636Z,23.80
2019-03-26T15:39:08.603Z,19.03
2019-03-26T15:41:34.472Z,12.13
2019-03-26T15:44:00.565Z,17.93
2019-03-26T15:46:26.385Z,11.25
2019-03-26T15:48:52.301Z,10.30
2019-03-26T15:51:21.420Z,12.97
2019-03-26T15:53:47.270Z,16.85
2019-03-26T15:56:15.846Z,14.70
2019-03-26T15:58:41.714Z,10.58
2019-03-26T16:01:10.799Z,11.10
2019-03-26T16:03:36.633Z,16.30
2019-03-26T16:06:05.909Z,15.93
2019-03-26T16:08:31.763Z,14.58
2019-03-26T16:11:01.005Z,15.20
2019-03-26T16:13:26.829Z,13.88
2019-03-26T16:15:55.667Z,20.50
2019-03-26T16:18:21.603Z,22.85
2019-03-26T16:20:47.422Z,20.63
2019-03-26T16:23:13.227Z,17.77
2019-03-26T16:25:39.341Z,25.23
2019-03-26T16:28:06.555Z,21.50
2019-03-26T16:30:34.491Z,20.43
2019-03-26T16:33:00.505Z,21.45
2019-03-26T16:35:26.343Z,15.68
2019-03-26T16:37:54.948Z,20.80
2019-03-26T16:40:20.800Z,24.43
2019-03-26T16:42:50.118Z,23.93
2019-03-26T16:45:16.125Z,25.12
2019-03-26T16:47:44.969Z,20.95
2019-03-26T16:50:10.894Z,19.32
2019-03-26T16:52:39.557Z,18.43
2019-03-26T16:55:05.722Z,100.82
2019-03-26T16:57:31.517Z,147.40
2019-03-26T16:59:57.340Z,65.50
2019-03-26T17:02:23.192Z,16.87
2019-03-26T17:04:51.749Z,74.40
2019-03-26T17:07:17.558Z,47.40
2019-03-26T17:09:46.142Z,31.53
2019-03-26T17:12:11.952Z,20.02
2019-03-26T17:14:41.653Z,22.70
2019-03-26T17:17:07.527Z,26.20
2019-03-26T17:19:36.140Z,23.93
2019-03-26T17:22:01.977Z,25.57
2019-03-26T17:24:30.548Z,20.97
2019-03-26T17:26:56.652Z,17.40
2019-03-26T17:29:25.597Z,22.07
2019-03-26T17:31:51.541Z,21.68
2019-03-26T17:34:17.357Z,21.73
2019-03-26T17:36:43.437Z,24.67
2019-03-26T17:39:09.550Z,23.20
2019-03-26T17:41:36.999Z,22.10
2019-03-26T17:44:03.019Z,14.75
2019-03-26T17:46:31.571Z,18.60
2019-03-26T17:48:57.420Z,17.52
2019-03-26T17:51:25.689Z,21.57
2019-03-26T17:53:51.505Z,18.05
2019-03-26T17:56:21.037Z,16.97
2019-03-26T17:58:46.879Z,20.15
2019-03-26T18:01:15.744Z,17.17
2019-03-26T18:03:41.576Z,15.55
2019-03-26T18:06:10.868Z,30.53
2019-03-26T18:08:36.718Z,21.50
2019-03-26T18:11:02.508Z,20.53
2019-03-26T18:13:28.303Z,19.60
2019-03-26T18:15:54.168Z,16.80
2019-03-26T18:18:22.936Z,24.70
2019-03-26T18:20:49.051Z,16.27
2019-03-26T18:23:17.818Z,16.02
2019-03-26T18:25:43.747Z,17.52
2019-03-26T18:28:12.672Z,14.40
2019-03-26T18:30:38.505Z,16.73
2019-03-26T18:33:06.333Z,14.97
2019-03-26T18:35:32.138Z,20.92
2019-03-26T18:38:00.970Z,27.93
2019-03-26T18:40:26.767Z,17.85
2019-03-26T18:42:55.536Z,29.60
2019-03-26T18:45:21.341Z,20.60
2019-03-26T18:47:47.376Z,16.03
2019-03-26T18:50:13.994Z,18.23
2019-03-26T18:52:39.795Z,38.08
2019-03-26T18:55:06.987Z,19.50
2019-03-26T18:57:32.876Z,25.85
2019-03-26T19:00:06.242Z,18.57
2019-03-26T19:02:32.055Z,20.60
2019-03-26T19:04:57.893Z,18.67
2019-03-26T19:07:23.962Z,24.43
2019-03-26T19:09:52.784Z,21.17
2019-03-26T19:12:18.605Z,22.10
2019-03-26T19:14:47.360Z,30.23
2019-03-26T19:17:13.524Z,27.77
2019-03-26T19:19:42.062Z,28.45
2019-03-26T19:22:08.176Z,31.27
2019-03-26T19:24:34.027Z,24.85
2019-03-26T19:26:59.802Z,28.63
2019-03-26T19:29:25.785Z,28.60
2019-03-26T19:31:53.068Z,25.92
2019-03-26T19:34:18.895Z,33.95
2019-03-26T19:36:47.762Z,28.00
2019-03-26T19:39:13.570Z,28.50
2019-03-26T19:41:42.235Z,29.13
2019-03-26T19:44:08.051Z,28.90
2019-03-26T19:46:36.736Z,31.73
2019-03-26T19:49:02.680Z,27.32
2019-03-26T19:51:31.660Z,28.57
2019-03-26T19:53:57.503Z,28.47
2019-03-26T19:56:26.360Z,25.03
2019-03-26T19:58:52.425Z,22.80
2019-03-26T20:01:18.265Z,21.82
2019-03-26T20:03:44.104Z,24.37
2019-03-26T20:06:13.731Z,24.90
2019-03-26T20:08:37.654Z,24.75
2019-03-26T20:11:03.509Z,37.90
2019-03-26T20:13:32.366Z,18.60
2019-03-26T20:15:58.161Z,25.45
2019-03-26T20:18:26.772Z,29.20
2019-03-26T20:20:52.633Z,20.40
2019-03-26T20:23:23.259Z,27.33
2019-03-26T20:25:49.465Z,20.68
2019-03-26T20:28:18.587Z,24.12
2019-03-26T20:30:44.379Z,27.67
2019-03-26T20:33:13.267Z,24.77
2019-03-26T20:35:39.382Z,28.67
2019-03-26T20:38:05.302Z,28.92
2019-03-26T20:40:31.119Z,36.27
2019-03-26T20:42:56.902Z,51.80
2019-03-26T20:45:22.906Z,40.43
2019-03-26T20:47:48.732Z,30.08
2019-03-26T20:50:17.865Z,30.87
2019-03-26T20:52:43.684Z,34.30
2019-03-26T20:55:14.533Z,32.10
2019-03-26T20:57:40.454Z,32.80
2019-03-26T21:00:10.094Z,33.13
2019-03-26T21:02:36.268Z,32.40
2019-03-26T21:05:02.537Z,24.55
2019-03-26T21:07:28.404Z,33.50
2019-03-26T21:09:57.169Z,35.40
2019-03-26T21:12:23.066Z,44.45
2019-03-26T21:14:48.908Z,47.63
2019-03-26T21:17:15.038Z,29.80
2019-03-26T21:19:40.884Z,36.85
2019-03-26T21:22:10.004Z,33.80
2019-03-26T21:24:36.139Z,34.25
2019-03-26T21:27:04.751Z,29.57
2019-03-26T21:29:30.592Z,27.85
2019-03-26T21:31:59.435Z,25.73
2019-03-26T21:34:30.534Z,34.50
2019-03-26T21:36:53.240Z,34.63
2019-03-26T21:39:19.067Z,31.50
2019-03-26T21:41:47.911Z,33.13
2019-03-26T21:44:13.767Z,36.38
2019-03-26T21:46:42.363Z,30.30
2019-03-26T21:49:08.160Z,20.08
2019-03-26T21:51:34.297Z,30.30
2019-03-26T21:54:00.437Z,36.95
2019-03-26T21:56:26.245Z,27.90
2019-03-26T21:58:55.088Z,40.33
2019-03-26T22:01:20.900Z,57.35
2019-03-26T22:03:49.511Z,36.63
2019-03-26T22:06:15.599Z,32.65
2019-03-26T22:08:43.127Z,43.33
2019-03-26T22:11:08.903Z,38.15
2019-03-26T22:13:37.517Z,36.03
2019-03-26T22:16:03.345Z,35.20
2019-03-26T22:18:33.744Z,27.60
2019-03-26T22:20:59.548Z,40.73
2019-03-26T22:23:28.118Z,34.67
2019-03-26T22:25:54.066Z,35.35
2019-03-26T22:28:20.141Z,27.13
2019-03-26T22:30:45.940Z,29.95
2019-03-26T22:33:12.542Z,25.37
2019-03-26T22:35:39.854Z,23.75
2019-03-26T22:38:05.662Z,22.85
2019-03-26T22:40:34.718Z,25.70
2019-03-26T22:43:00.534Z,31.37
2019-03-26T22:45:29.527Z,40.13
2019-03-26T22:47:55.357Z,27.95
2019-03-26T22:50:23.956Z,31.50
2019-03-26T22:52:50.041Z,27.42
2019-03-26T22:55:18.888Z,35.28
2019-03-26T22:57:44.779Z,30.80
2019-03-26T23:00:17.857Z,32.13
2019-03-26T23:02:43.740Z,30.80
2019-03-26T23:05:09.830Z,28.63
2019-03-26T23:07:35.702Z,34.10
2019-03-26T23:10:02.227Z,24.07
2019-03-26T23:12:28.032Z,35.83
2019-03-26T23:14:53.975Z,28.23
2019-03-26T23:17:20.187Z,27.00
2019-03-26T23:19:46.273Z,31.42
2019-03-26T23:22:15.353Z,35.60
2019-03-26T23:24:41.154Z,35.75
2019-03-26T23:27:10.072Z,28.50
2019-03-26T23:29:35.910Z,26.00
2019-03-26T23:32:04.487Z,25.00
2019-03-26T23:34:30.308Z,20.82
2019-03-26T23:36:58.965Z,22.87
2019-03-26T23:39:24.798Z,27.80
2019-03-26T23:41:50.591Z,32.47
2019-03-26T23:44:25.682Z,24.20
2019-03-26T23:46:44.166Z,23.87
2019-03-26T23:49:10.003Z,25.90
2019-03-26T23:51:36.181Z,27.30
2019-03-26T23:54:05.024Z,24.90
2019-03-26T23:56:31.099Z,34.35
2019-03-26T23:58:59.994Z,33.98
